Michael S — WDE9794 — position and weather

sailwx.info

Track history (hours):
 
Tides and Currents Weather Stations Pressure Air Temp Water Temp Dewpoint Dewpoint Depression Visibility Wind Speed Wind Dir Waves Ship Positions

Michael S

Owner: Bisso Tow Boats Inc., New Orleans, LA. More information available from US FCC via Universal Licensing System and Coast Guard Vessel Documentation Center.

Last reported at 2014-Oct-25 13:14 UTC. Time now 2014-Oct-25 17:40 UTC.
Position N 29°57' W 090°02'.

Length 33 m; draft 3 m.

Type: Towing. MMSI: 367413700.

Date/timePositionNaut miles runAvg speedWind from/ knotsBaromVisibWave heightAir tempDewpointWater temp
2014-Oct-25 13:14N 29°57' W 090°02'3 0.9
2014-Oct-25 09:31N 29°55' W 090°05'4 1.0
2014-Oct-25 05:26N 29°57' W 090°01'2 0.3
2014-Oct-24 23:33N 29°56' W 089°59'0 0.1
2014-Oct-24 19:27N 29°56' W 089°59'2 1.0
2014-Oct-24 17:32N 29°57' W 090°00'20 8.9
2014-Oct-24 15:14N 29°59' W 090°24'1 2.1
2014-Oct-24 14:32N 29°57' W 090°24'4 0.5
2014-Oct-24 07:12N 29°56' W 090°20'10 0.9
2014-Oct-23 20:10N 29°55' W 090°08'5 6.9
2014-Oct-23 19:30N 29°57' W 090°03'2 1.5
2014-Oct-23 18:27N 29°57' W 090°02'6 0.9
2014-Oct-23 12:20N 29°56' W 090°08'1 1.3
2014-Oct-23 11:28N 29°57' W 090°08'2 0.9
2014-Oct-23 09:15N 29°55' W 090°07'1 0.6
2014-Oct-23 07:14N 29°55' W 090°06'0 0.0
2014-Oct-23 06:33N 29°55' W 090°06'0 0.0
2014-Oct-23 05:21N 29°55' W 090°06'0 0.0
2014-Oct-23 02:06N 29°55' W 090°06'1 0.2
2014-Oct-22 19:21N 29°55' W 090°04'1 0.4
2014-Oct-22 17:33N 29°56' W 090°04'3 0.1
2014-Oct-21 12:05N 29°57' W 090°01'0 0.0
2014-Oct-21 11:32N 29°57' W 090°01'0 0.0
2014-Oct-21 10:32N 29°57' W 090°01'0 0.0
2014-Oct-20 11:19N 29°57' W 090°01'  
2014-Oct-18 05:16N 29°57' W 090°01'2 0.1
2014-Oct-17 09:30N 29°56' W 089°60'2 0.3
2014-Oct-17 05:05N 29°57' W 090°01'  
Track history (hours):
 
Tides and Currents Weather Stations Pressure Air Temp Water Temp Dewpoint Dewpoint Depression Visibility Wind Speed Wind Dir Waves Ship Positions

Michael S

Owner: Bisso Tow Boats Inc., New Orleans, LA. More information available from US FCC via Universal Licensing System and Coast Guard Vessel Documentation Center.

Last reported at 2014-Oct-25 13:14 UTC. Time now 2014-Oct-25 17:40 UTC.
Position N 29°57' W 090°02'.

Length 33 m; draft 3 m.

Type: Towing. MMSI: 367413700.

Date/timePositionNaut miles runAvg speedWind from/ knotsBaromVisibWave heightAir tempDewpointWater temp
2014-Oct-25 13:14N 29°57' W 090°02'3 0.9
2014-Oct-25 09:31N 29°55' W 090°05'4 1.0
2014-Oct-25 05:26N 29°57' W 090°01'2 0.3
2014-Oct-24 23:33N 29°56' W 089°59'0 0.1
2014-Oct-24 19:27N 29°56' W 089°59'2 1.0
2014-Oct-24 17:32N 29°57' W 090°00'20 8.9
2014-Oct-24 15:14N 29°59' W 090°24'1 2.1
2014-Oct-24 14:32N 29°57' W 090°24'4 0.5
2014-Oct-24 07:12N 29°56' W 090°20'10 0.9
2014-Oct-23 20:10N 29°55' W 090°08'5 6.9
2014-Oct-23 19:30N 29°57' W 090°03'2 1.5
2014-Oct-23 18:27N 29°57' W 090°02'6 0.9
2014-Oct-23 12:20N 29°56' W 090°08'1 1.3
2014-Oct-23 11:28N 29°57' W 090°08'2 0.9
2014-Oct-23 09:15N 29°55' W 090°07'1 0.6
2014-Oct-23 07:14N 29°55' W 090°06'0 0.0
2014-Oct-23 06:33N 29°55' W 090°06'0 0.0
2014-Oct-23 05:21N 29°55' W 090°06'0 0.0
2014-Oct-23 02:06N 29°55' W 090°06'1 0.2
2014-Oct-22 19:21N 29°55' W 090°04'1 0.4
2014-Oct-22 17:33N 29°56' W 090°04'3 0.1
2014-Oct-21 12:05N 29°57' W 090°01'0 0.0
2014-Oct-21 11:32N 29°57' W 090°01'0 0.0
2014-Oct-21 10:32N 29°57' W 090°01'0 0.0
2014-Oct-20 11:19N 29°57' W 090°01'  
2014-Oct-18 05:16N 29°57' W 090°01'2 0.1
2014-Oct-17 09:30N 29°56' W 089°60'2 0.3
2014-Oct-17 05:05N 29°57' W 090°01'  

Dump ship's entire track history